createdAt,value
2019-02-03T00:00:23.361Z,99.72
2019-02-03T00:01:23.231Z,99.58
2019-02-03T00:02:23.211Z,99.67
2019-02-03T00:03:22.954Z,99.48
2019-02-03T00:04:23.185Z,99.25
2019-02-03T00:05:23.386Z,99.53
2019-02-03T00:06:23.150Z,99.53
2019-02-03T00:07:23.139Z,99.44
2019-02-03T00:08:23.120Z,99.72
2019-02-03T00:09:23.102Z,99.15
2019-02-03T00:10:23.085Z,99.25
2019-02-03T00:11:23.074Z,99.06
2019-02-03T00:12:23.063Z,99.15
2019-02-03T00:13:23.339Z,99.15
2019-02-03T00:14:23.025Z,99.06
2019-02-03T00:15:23.014Z,99.15
2019-02-03T00:16:22.998Z,99.15
2019-02-03T00:17:22.984Z,98.96
2019-02-03T00:18:22.969Z,99.06
2019-02-03T00:19:22.952Z,99.06
2019-02-03T00:20:22.938Z,98.87
2019-02-03T00:21:23.202Z,98.96
2019-02-03T00:22:22.901Z,99.15
2019-02-03T00:23:22.894Z,98.96
2019-02-03T00:24:22.876Z,99.06
2019-02-03T00:25:22.860Z,99.06
2019-02-03T00:26:22.844Z,98.96
2019-02-03T00:27:22.836Z,99.06
2019-02-03T00:28:22.821Z,99.06
2019-02-03T00:29:22.948Z,98.96
2019-02-03T00:30:22.798Z,99.06
2019-02-03T00:31:22.772Z,99.06
2019-02-03T00:32:22.758Z,99.25
2019-02-03T00:33:22.749Z,99.15
2019-02-03T00:34:22.722Z,99.15
2019-02-03T00:35:22.714Z,99.34
2019-02-03T00:36:22.697Z,99.34
2019-02-03T00:37:22.682Z,99.15
2019-02-03T00:38:28.588Z,99.15
2019-02-03T00:39:22.679Z,99.15
2019-02-03T00:40:22.739Z,99.15
2019-02-03T00:41:22.390Z,99.82
2019-02-03T00:42:22.607Z,99.53
2019-02-03T00:43:22.595Z,99.15
2019-02-03T00:44:22.577Z,98.96
2019-02-03T00:45:22.560Z,99.06
2019-02-03T00:46:22.883Z,99.15
2019-02-03T00:47:22.525Z,99.82
2019-02-03T00:48:22.513Z,99.63
2019-02-03T00:49:22.508Z,99.72
2019-02-03T00:50:22.486Z,99.34
2019-02-03T00:51:22.491Z,99.53
2019-02-03T00:52:22.457Z,99.63
2019-02-03T00:53:22.443Z,99.72
2019-02-03T00:54:22.724Z,99.72
2019-02-03T00:55:22.410Z,98.96
2019-02-03T00:56:22.396Z,99.15
2019-02-03T00:57:22.378Z,99.72
2019-02-03T00:58:22.367Z,99.15
2019-02-03T00:59:22.352Z,98.87
2019-02-03T01:00:22.326Z,99.25
2019-02-03T01:01:22.324Z,99.34
2019-02-03T01:02:22.517Z,99.82
2019-02-03T01:03:22.293Z,98.96
2019-02-03T01:04:22.272Z,99.15
2019-02-03T01:05:22.256Z,99.91
2019-02-03T01:06:22.240Z,99.06
2019-02-03T01:07:29.845Z,99.06
2019-02-03T01:08:22.214Z,99.06
2019-02-03T01:09:22.202Z,98.96
2019-02-03T01:10:22.472Z,99.34
2019-02-03T01:11:22.164Z,99.72
2019-02-03T01:12:22.149Z,99.72
2019-02-03T01:13:22.150Z,99.72
2019-02-03T01:14:22.122Z,99.72
2019-02-03T01:15:22.105Z,99.91
2019-02-03T01:16:22.100Z,98.96
2019-02-03T01:17:22.081Z,99.06
2019-02-03T01:18:22.132Z,99.15
2019-02-03T01:19:22.046Z,99.25
2019-02-03T01:20:22.040Z,99.25
2019-02-03T01:21:22.020Z,99.06
2019-02-03T01:22:22.005Z,99.06
2019-02-03T01:23:21.991Z,99.15
2019-02-03T01:24:21.974Z,99.25
2019-02-03T01:25:21.973Z,98.96
2019-02-03T01:26:22.104Z,99.82
2019-02-03T01:27:21.929Z,99.15
2019-02-03T01:28:21.914Z,98.96
2019-02-03T01:29:21.987Z,99.53
2019-02-03T01:30:21.881Z,99.82
2019-02-03T01:31:21.866Z,99.91
2019-02-03T01:32:21.856Z,99.91
2019-02-03T01:33:21.849Z,98.96
2019-02-03T01:34:21.822Z,99.53
2019-02-03T01:35:21.811Z,98.96
2019-02-03T01:36:21.790Z,99.15
2019-02-03T01:37:21.776Z,98.96
2019-02-03T01:38:21.770Z,99.53
2019-02-03T01:39:21.749Z,99.72
2019-02-03T01:40:21.735Z,98.96
2019-02-03T01:41:21.720Z,99.63
2019-02-03T01:42:21.701Z,99.82
2019-02-03T01:43:21.687Z,99.63
2019-02-03T01:44:23.157Z,99.25
2019-02-03T01:45:21.668Z,98.96
2019-02-03T01:46:21.646Z,99.53
2019-02-03T01:47:21.627Z,99.44
2019-02-03T01:48:21.616Z,98.96
2019-02-03T01:49:21.599Z,99.15
2019-02-03T01:50:21.583Z,99.15
2019-02-03T01:51:21.923Z,99.34
2019-02-03T01:52:21.553Z,99.34
2019-02-03T01:53:21.539Z,99.15
2019-02-03T01:54:21.526Z,99.25
2019-02-03T01:55:21.532Z,99.15
2019-02-03T01:56:21.492Z,99.63
2019-02-03T01:57:21.486Z,99.63
2019-02-03T01:58:21.471Z,99.91
2019-02-03T01:59:21.772Z,99.72
2019-02-03T02:00:21.436Z,99.72
2019-02-03T02:01:21.422Z,99.82
2019-02-03T02:02:21.416Z,99.53
2019-02-03T02:03:21.392Z,99.63
2019-02-03T02:04:21.377Z,99.53
2019-02-03T02:05:21.363Z,99.82
2019-02-03T02:06:21.352Z,99.82
2019-02-03T02:07:21.610Z,99.82
2019-02-03T02:08:21.318Z,99.63
2019-02-03T02:09:21.303Z,99.72
2019-02-03T02:10:21.287Z,98.96
2019-02-03T02:11:21.268Z,98.96
2019-02-03T02:12:21.258Z,98.96
2019-02-03T02:13:21.240Z,99.82
2019-02-03T02:14:21.223Z,99.25
2019-02-03T02:15:21.507Z,99.53
2019-02-03T02:16:21.203Z,99.82
2019-02-03T02:17:21.177Z,99.82
2019-02-03T02:18:21.305Z,99.53
2019-02-03T02:19:21.148Z,99.82
2019-02-03T02:20:21.138Z,99.63
2019-02-03T02:21:21.120Z,99.82
2019-02-03T02:22:21.113Z,99.63
2019-02-03T02:23:21.387Z,99.44
2019-02-03T02:24:21.075Z,99.53
2019-02-03T02:25:21.061Z,99.53
2019-02-03T02:26:21.051Z,99.53
2019-02-03T02:27:21.033Z,99.53
2019-02-03T02:28:21.016Z,99.25
2019-02-03T02:29:21.002Z,99.44
2019-02-03T02:30:20.997Z,99.25
2019-02-03T02:31:21.258Z,99.06
2019-02-03T02:32:20.969Z,99.34
2019-02-03T02:33:20.949Z,99.72
2019-02-03T02:34:20.932Z,99.25
2019-02-03T02:35:20.910Z,99.53
2019-02-03T02:36:20.898Z,99.82
2019-02-03T02:37:20.878Z,99.72
2019-02-03T02:38:20.868Z,99.72
2019-02-03T02:39:21.117Z,99.53
2019-02-03T02:40:20.863Z,99.53
2019-02-03T02:41:20.822Z,99.82
2019-02-03T02:42:20.805Z,99.15
2019-02-03T02:43:20.793Z,99.15
2019-02-03T02:44:20.774Z,99.34
2019-02-03T02:45:20.781Z,98.96
2019-02-03T02:46:20.742Z,99.72
2019-02-03T02:47:21.030Z,99.63
2019-02-03T02:48:20.714Z,99.63
2019-02-03T02:49:20.702Z,99.72
2019-02-03T02:50:20.685Z,99.82
2019-02-03T02:51:20.671Z,99.63
2019-02-03T02:52:20.662Z,99.53
2019-02-03T02:53:20.647Z,99.63
2019-02-03T02:54:20.623Z,99.72
2019-02-03T02:55:20.960Z,99.72
2019-02-03T02:56:20.597Z,99.63
2019-02-03T02:57:20.580Z,99.63
2019-02-03T02:58:20.571Z,98.96
2019-02-03T02:59:20.550Z,99.34
2019-02-03T03:00:20.537Z,99.34
2019-02-03T03:01:20.522Z,99.25
2019-02-03T03:02:20.514Z,98.96
2019-02-03T03:03:20.876Z,99.53
2019-02-03T03:04:20.476Z,99.82
2019-02-03T03:05:20.464Z,99.91
2019-02-03T03:06:20.453Z,99.72
2019-02-03T03:07:20.430Z,99.25
2019-02-03T03:08:22.118Z,99.15
2019-02-03T03:09:20.414Z,99.72
2019-02-03T03:10:20.398Z,99.72
2019-02-03T03:11:20.627Z,99.63
2019-02-03T03:12:20.364Z,99.72
2019-02-03T03:13:20.342Z,99.63
2019-02-03T03:14:20.350Z,99.25
2019-02-03T03:15:20.322Z,98.96
2019-02-03T03:16:20.305Z,99.25
2019-02-03T03:17:20.290Z,99.25
2019-02-03T03:18:20.272Z,99.15
2019-02-03T03:19:20.475Z,99.82
2019-02-03T03:20:20.242Z,99.82
2019-02-03T03:21:20.227Z,99.72
2019-02-03T03:22:20.213Z,99.82
2019-02-03T03:23:20.189Z,99.91
2019-02-03T03:24:20.181Z,99.72
2019-02-03T03:25:20.177Z,99.82
2019-02-03T03:26:20.151Z,99.15
2019-02-03T03:27:20.370Z,99.53
2019-02-03T03:28:20.149Z,99.25
2019-02-03T03:29:20.105Z,99.82
2019-02-03T03:30:20.122Z,99.82
2019-02-03T03:31:20.111Z,99.34
2019-02-03T03:32:20.068Z,99.99
2019-02-03T03:33:20.070Z,99.72
2019-02-03T03:34:20.032Z,99.72
2019-02-03T03:35:20.310Z,99.91
2019-02-03T03:36:20.000Z,99.91
2019-02-03T03:37:20.143Z,99.44
2019-02-03T03:38:31.572Z,99.63
2019-02-03T03:39:19.963Z,99.53
2019-02-03T03:40:19.939Z,99.82
2019-02-03T03:41:19.927Z,99.44
2019-02-03T03:42:19.910Z,99.72
2019-02-03T03:43:20.018Z,99.99
2019-02-03T03:44:19.878Z,99.44
2019-02-03T03:45:19.872Z,99.91
2019-02-03T03:46:19.855Z,99.72
2019-02-03T03:47:19.841Z,99.53
2019-02-03T03:48:19.823Z,99.72
2019-02-03T03:49:19.835Z,99.72
2019-02-03T03:50:19.558Z,99.44
2019-02-03T03:51:19.780Z,99.63
2019-02-03T03:52:19.762Z,99.63
2019-02-03T03:53:19.748Z,99.44
2019-02-03T03:54:19.736Z,99.53
2019-02-03T03:55:19.736Z,99.72
2019-02-03T03:56:19.466Z,99.34
2019-02-03T03:57:19.698Z,99.53
2019-02-03T03:58:19.804Z,99.53
2019-02-03T03:59:19.660Z,99.72
2019-02-03T04:00:19.422Z,99.72
2019-02-03T04:01:19.628Z,99.63
2019-02-03T04:02:19.623Z,99.63
2019-02-03T04:03:19.623Z,99.44
2019-02-03T04:04:19.590Z,99.63
2019-02-03T04:05:19.604Z,99.53
2019-02-03T04:06:19.558Z,99.63
2019-02-03T04:07:19.556Z,99.82
2019-02-03T04:08:19.529Z,99.53
2019-02-03T04:09:19.514Z,99.63
2019-02-03T04:10:19.498Z,99.53
2019-02-03T04:11:19.488Z,99.53
2019-02-03T04:12:19.469Z,99.53
2019-02-03T04:13:19.456Z,99.53
2019-02-03T04:14:19.439Z,99.53
2019-02-03T04:15:19.425Z,99.53
2019-02-03T04:16:19.411Z,99.53
2019-02-03T04:17:19.401Z,99.63
2019-02-03T04:18:19.381Z,99.72
2019-02-03T04:19:19.369Z,99.72
2019-02-03T04:20:19.382Z,99.63
2019-02-03T04:21:19.367Z,99.82
2019-02-03T04:22:19.324Z,99.53
2019-02-03T04:23:19.309Z,99.82
2019-02-03T04:24:19.550Z,99.06
2019-02-03T04:25:19.277Z,99.72
2019-02-03T04:26:19.268Z,99.82
2019-02-03T04:27:19.246Z,98.96
2019-02-03T04:28:19.285Z,99.44
2019-02-03T04:29:19.224Z,99.82
2019-02-03T04:30:19.355Z,99.82
2019-02-03T04:31:19.190Z,99.82
2019-02-03T04:32:19.434Z,99.91
2019-02-03T04:33:19.167Z,99.63
2019-02-03T04:34:19.148Z,99.82
2019-02-03T04:35:19.132Z,99.72
2019-02-03T04:36:19.112Z,99.82
2019-02-03T04:37:19.100Z,99.53
2019-02-03T04:38:19.084Z,99.72
2019-02-03T04:39:19.081Z,99.91
2019-02-03T04:40:19.471Z,99.82
2019-02-03T04:41:19.043Z,99.82
2019-02-03T04:42:19.026Z,99.82
2019-02-03T04:43:19.012Z,99.72
2019-02-03T04:44:19.005Z,99.63
2019-02-03T04:45:22.260Z,99.72
2019-02-03T04:46:18.971Z,99.82
2019-02-03T04:47:18.949Z,99.06
2019-02-03T04:48:19.242Z,99.82
2019-02-03T04:49:18.927Z,99.25
2019-02-03T04:50:18.908Z,99.34
2019-02-03T04:51:18.896Z,98.96
2019-02-03T04:52:18.880Z,99.82
2019-02-03T04:53:18.864Z,99.91
2019-02-03T04:54:18.860Z,99.72
2019-02-03T04:55:18.830Z,99.72
2019-02-03T04:56:19.063Z,99.82
2019-02-03T04:57:18.805Z,99.15
2019-02-03T04:58:18.789Z,99.82
2019-02-03T04:59:18.777Z,99.82
2019-02-03T05:00:18.766Z,99.72
2019-02-03T05:01:18.743Z,99.82
2019-02-03T05:02:18.727Z,99.72
2019-02-03T05:03:18.716Z,99.72
2019-02-03T05:04:19.035Z,99.87
2019-02-03T05:05:18.689Z,99.77
2019-02-03T05:06:18.677Z,99.87
2019-02-03T05:07:18.654Z,99.77
2019-02-03T05:08:18.641Z,99.87
2019-02-03T05:09:18.624Z,99.87
2019-02-03T05:10:18.615Z,99.68
2019-02-03T05:11:18.593Z,99.96
2019-02-03T05:12:18.894Z,99.87
2019-02-03T05:13:18.568Z,99.87
2019-02-03T05:14:18.556Z,99.96
2019-02-03T05:15:18.543Z,99.77
2019-02-03T05:16:18.521Z,99.87
2019-02-03T05:17:21.470Z,99.96
2019-02-03T05:18:18.500Z,99.58
2019-02-03T05:19:18.481Z,99.96
2019-02-03T05:20:18.790Z,99.58
2019-02-03T05:21:18.452Z,99.58
2019-02-03T05:22:18.435Z,99.3
2019-02-03T05:23:18.422Z,99.2
2019-02-03T05:24:18.410Z,99.58
2019-02-03T05:25:18.443Z,99.87
2019-02-03T05:26:18.382Z,99.01
2019-02-03T05:27:18.364Z,99.11
2019-02-03T05:28:18.632Z,99.2
2019-02-03T05:29:18.332Z,99.58
2019-02-03T05:30:18.320Z,99.96
2019-02-03T05:31:18.305Z,99.2
2019-02-03T05:32:18.292Z,99.3
2019-02-03T05:33:18.300Z,99.01
2019-02-03T05:34:18.262Z,99.96
2019-02-03T05:35:18.252Z,99.01
2019-02-03T05:36:18.635Z,99.01
2019-02-03T05:37:18.226Z,99.2
2019-02-03T05:38:18.200Z,99.77
2019-02-03T05:39:27.573Z,99.58
2019-02-03T05:40:18.180Z,99.68
2019-02-03T05:41:18.165Z,99.01
2019-02-03T05:42:18.142Z,99.58
2019-02-03T05:43:18.131Z,99.2
2019-02-03T05:44:18.451Z,99.2
2019-02-03T05:45:18.119Z,99.2
2019-02-03T05:46:18.106Z,99.2
2019-02-03T05:47:18.072Z,99.2
2019-02-03T05:48:18.066Z,99.2
2019-02-03T05:49:18.040Z,99.39
2019-02-03T05:50:18.026Z,98.92
2019-02-03T05:51:18.017Z,99.2
2019-02-03T05:52:18.290Z,99.2
2019-02-03T05:53:17.981Z,99.2
2019-02-03T05:54:17.970Z,99.2
2019-02-03T05:55:17.966Z,99.2
2019-02-03T05:56:17.938Z,99.2
2019-02-03T05:57:17.922Z,99.39
2019-02-03T05:58:17.911Z,99.87
2019-02-03T05:59:17.890Z,99.72
2019-02-03T06:00:18.188Z,99.63
2019-02-03T06:01:17.875Z,99.39
2019-02-03T06:02:17.854Z,99.25
2019-02-03T06:03:17.843Z,99.99
2019-02-03T06:04:17.823Z,99.82
2019-02-03T06:05:17.814Z,99.82
2019-02-03T06:06:17.796Z,99.91
2019-02-03T06:07:17.774Z,99.58
2019-02-03T06:08:18.039Z,99.63
2019-02-03T06:09:17.748Z,99.91
2019-02-03T06:10:17.743Z,99.91
2019-02-03T06:11:17.721Z,99.77
2019-02-03T06:12:17.765Z,99.87
2019-02-03T06:13:17.691Z,99.68
2019-02-03T06:14:17.676Z,99.68
2019-02-03T06:15:17.663Z,99.87
2019-02-03T06:16:17.784Z,99.77
2019-02-03T06:17:17.634Z,99.25
2019-02-03T06:18:17.618Z,99.2
2019-02-03T06:19:17.601Z,99.44
2019-02-03T06:20:17.591Z,99.99
2019-02-03T06:21:17.575Z,99.72
2019-02-03T06:22:17.558Z,99.63
2019-02-03T06:23:17.544Z,99.53
2019-02-03T06:24:17.784Z,99.72
2019-02-03T06:25:17.774Z,99.72
2019-02-03T06:26:17.501Z,99.82
2019-02-03T06:27:17.489Z,99.63
2019-02-03T06:28:17.479Z,99.72
2019-02-03T06:29:17.460Z,99.82
2019-02-03T06:30:17.437Z,99.72
2019-02-03T06:31:17.480Z,99.82
2019-02-03T06:32:17.537Z,99.68
2019-02-03T06:33:17.396Z,99.77
2019-02-03T06:34:17.389Z,99.68
2019-02-03T06:35:17.372Z,99.77
2019-02-03T06:36:17.398Z,99.63
2019-02-03T06:37:17.377Z,99.68
2019-02-03T06:38:17.322Z,99.49
2019-02-03T06:39:17.311Z,99.58
2019-02-03T06:40:17.302Z,99.77
2019-02-03T06:41:17.394Z,99.58
2019-02-03T06:42:17.266Z,99.96
2019-02-03T06:43:17.252Z,99.77
2019-02-03T06:44:17.236Z,99.96
2019-02-03T06:45:17.232Z,99.87
2019-02-03T06:46:17.207Z,99.87
2019-02-03T06:47:17.272Z,99.58
2019-02-03T06:48:17.181Z,99.77
2019-02-03T06:49:17.502Z,99.96
2019-02-03T06:50:17.144Z,99.96
2019-02-03T06:51:17.128Z,99.68
2019-02-03T06:52:17.123Z,99.99
2019-02-03T06:53:17.098Z,99.77
2019-02-03T06:54:17.088Z,99.68
2019-02-03T06:55:16.830Z,99.58
2019-02-03T06:56:17.062Z,99.87
2019-02-03T06:57:17.362Z,99.87
2019-02-03T06:58:17.030Z,99.77
2019-02-03T06:59:17.014Z,99.77
2019-02-03T07:00:17.006Z,99.77
2019-02-03T07:01:16.994Z,99.96
2019-02-03T07:02:17.073Z,99.68
2019-02-03T07:03:16.972Z,99.96
2019-02-03T07:04:17.257Z,99.77
2019-02-03T07:05:17.305Z,99.77
2019-02-03T07:06:16.962Z,99.58
2019-02-03T07:07:16.894Z,99.58
2019-02-03T07:08:16.900Z,99.58
2019-02-03T07:09:16.871Z,99.87
2019-02-03T07:10:16.861Z,99.87
2019-02-03T07:11:16.844Z,99.77
2019-02-03T07:12:16.831Z,99.2
2019-02-03T07:13:16.902Z,99.39
2019-02-03T07:14:16.796Z,99.01
2019-02-03T07:15:16.791Z,99.39
2019-02-03T07:16:16.768Z,99.11
2019-02-03T07:17:16.765Z,98.92
2019-02-03T07:18:16.744Z,99.77
2019-02-03T07:19:16.728Z,99.77
2019-02-03T07:20:16.734Z,99.87
2019-02-03T07:21:16.958Z,99.87
2019-02-03T07:22:16.694Z,99.77
2019-02-03T07:23:16.672Z,99.68
2019-02-03T07:24:16.656Z,99.68
2019-02-03T07:25:16.647Z,99.87
2019-02-03T07:26:16.628Z,99.2
2019-02-03T07:27:16.761Z,99.87
2019-02-03T07:28:16.600Z,99.96
2019-02-03T07:29:16.710Z,99.87
2019-02-03T07:30:16.568Z,99.2
2019-02-03T07:31:16.549Z,99.3
2019-02-03T07:32:16.544Z,99.3
2019-02-03T07:33:16.529Z,99.87
2019-02-03T07:34:16.509Z,99.68
2019-02-03T07:35:16.499Z,99.77
2019-02-03T07:36:16.481Z,99.58
2019-02-03T07:37:16.777Z,99.87
2019-02-03T07:38:16.458Z,99.3
2019-02-03T07:39:16.442Z,99.39
2019-02-03T07:40:16.430Z,99.87
2019-02-03T07:41:16.409Z,99.77
2019-02-03T07:42:16.397Z,99.77
2019-02-03T07:43:16.390Z,99.99
2019-02-03T07:44:16.370Z,99.3
2019-02-03T07:45:16.719Z,99.58
2019-02-03T07:46:16.335Z,99.3
2019-02-03T07:47:16.325Z,99.87
2019-02-03T07:48:16.310Z,99.68
2019-02-03T07:49:16.294Z,99.68
2019-02-03T07:50:16.279Z,99.99
2019-02-03T07:51:16.268Z,99.87
2019-02-03T07:52:16.255Z,99.87
2019-02-03T07:53:16.480Z,99.68
2019-02-03T07:54:16.228Z,99.87
2019-02-03T07:55:16.214Z,99.68
2019-02-03T07:56:16.200Z,99.87
2019-02-03T07:57:15.943Z,99.99
2019-02-03T07:58:16.167Z,99.87
2019-02-03T07:59:16.152Z,99.96
2019-02-03T08:00:16.142Z,99.39
2019-02-03T08:01:16.343Z,99.49
2019-02-03T08:02:16.117Z,99.39
2019-02-03T08:03:16.092Z,99.49
2019-02-03T08:04:16.090Z,99.3
2019-02-03T08:05:16.064Z,99.39
2019-02-03T08:06:16.054Z,99.96
2019-02-03T08:07:16.035Z,99.01
2019-02-03T08:08:16.029Z,99.77
2019-02-03T08:09:16.020Z,99.77
2019-02-03T08:10:28.804Z,99.77
2019-02-03T08:11:15.979Z,99.77
2019-02-03T08:12:15.740Z,99.96
2019-02-03T08:13:15.948Z,99.68
2019-02-03T08:14:15.941Z,99.58
2019-02-03T08:15:15.922Z,99.77
2019-02-03T08:16:15.670Z,99.96
2019-02-03T08:17:15.895Z,99.2
2019-02-03T08:18:15.898Z,99.2
2019-02-03T08:19:15.864Z,99.77
2019-02-03T08:20:15.871Z,99.58
2019-02-03T08:21:15.835Z,99.82
2019-02-03T08:22:15.825Z,99.72
2019-02-03T08:23:15.818Z,99.82
2019-02-03T08:24:15.798Z,99.99
2019-02-03T08:25:15.784Z,99.72
2019-02-03T08:26:15.761Z,99.99
2019-02-03T08:27:15.751Z,99.99
2019-02-03T08:28:15.732Z,99.99
2019-02-03T08:29:17.315Z,99.99
2019-02-03T08:30:15.711Z,99.99
2019-02-03T08:31:15.702Z,99.99
2019-02-03T08:32:15.921Z,99.99
2019-02-03T08:33:15.662Z,99.99
2019-02-03T08:34:15.725Z,99.99
2019-02-03T08:35:15.634Z,99.99
2019-02-03T08:36:15.626Z,99.99
2019-02-03T08:37:15.608Z,99.63
2019-02-03T08:38:15.592Z,99.99
2019-02-03T08:39:15.605Z,99.99
2019-02-03T08:40:15.841Z,99.99
2019-02-03T08:41:15.552Z,99.99
2019-02-03T08:42:15.531Z,99.99
2019-02-03T08:43:15.523Z,99.99
2019-02-03T08:44:15.517Z,99.96
2019-02-03T08:45:15.509Z,99.77
2019-02-03T08:46:15.479Z,99.99
2019-02-03T08:47:15.465Z,99.96
2019-02-03T08:48:15.729Z,99.99
2019-02-03T08:49:15.423Z,99.99
2019-02-03T08:50:15.413Z,99.99
2019-02-03T08:51:15.408Z,99.99
2019-02-03T08:52:15.387Z,99.99
2019-02-03T08:53:15.368Z,99.99
2019-02-03T08:54:15.355Z,99.99
2019-02-03T08:55:15.347Z,99.99
2019-02-03T08:56:15.521Z,99.99
2019-02-03T08:57:15.308Z,99.99
2019-02-03T08:58:15.294Z,99.99
2019-02-03T08:59:15.280Z,99.99
2019-02-03T09:00:15.272Z,99.99
2019-02-03T09:01:15.248Z,99.99
2019-02-03T09:02:15.254Z,99.77
2019-02-03T09:03:15.225Z,99.96
2019-02-03T09:04:15.269Z,99.96
2019-02-03T09:05:15.296Z,99.99
2019-02-03T09:06:15.179Z,99.96
2019-02-03T09:07:15.164Z,99.67
2019-02-03T09:08:15.150Z,99.58
2019-02-03T09:09:15.141Z,99.91
2019-02-03T09:10:15.115Z,99.34
2019-02-03T09:11:15.100Z,99.53
2019-02-03T09:12:18.200Z,99.34
2019-02-03T09:13:15.068Z,99.99
2019-02-03T09:14:15.058Z,99.63
2019-02-03T09:15:15.043Z,99.63
2019-02-03T09:16:15.024Z,99.44
2019-02-03T09:17:15.015Z,99.82
2019-02-03T09:18:15.008Z,99.53
2019-02-03T09:19:14.990Z,99.34
2019-02-03T09:20:15.183Z,99.44
2019-02-03T09:21:14.953Z,99.82
2019-02-03T09:22:14.949Z,99.53
2019-02-03T09:23:14.929Z,99.34
2019-02-03T09:24:14.973Z,99.63
2019-02-03T09:25:14.896Z,99.34
2019-02-03T09:26:14.877Z,99.53
2019-02-03T09:27:14.905Z,99.72
2019-02-03T09:28:15.020Z,99.63
2019-02-03T09:29:14.839Z,99.44
2019-02-03T09:30:14.816Z,99.63
2019-02-03T09:31:14.803Z,99.99
2019-02-03T09:32:14.793Z,99.63
2019-02-03T09:33:14.774Z,99.34
2019-02-03T09:34:14.763Z,99.53
2019-02-03T09:35:14.746Z,99.72
2019-02-03T09:36:14.859Z,99.53
2019-02-03T09:37:14.721Z,99.99
2019-02-03T09:38:14.702Z,99.91
2019-02-03T09:39:14.685Z,99.72
2019-02-03T09:40:14.680Z,99.72
2019-02-03T09:41:14.659Z,99.72
2019-02-03T09:42:14.640Z,99.29
2019-02-03T09:43:14.629Z,99.29
2019-02-03T09:44:14.796Z,99.77
2019-02-03T09:45:14.597Z,99.86
2019-02-03T09:46:14.588Z,99.86
2019-02-03T09:47:14.575Z,99.99
2019-02-03T09:48:14.550Z,99.67
2019-02-03T09:49:14.539Z,99.86
2019-02-03T09:50:14.522Z,99.77
2019-02-03T09:51:14.507Z,99.77
2019-02-03T09:52:14.647Z,99.86
2019-02-03T09:53:14.481Z,99.67
2019-02-03T09:54:14.465Z,99.77
2019-02-03T09:55:14.455Z,99.77
2019-02-03T09:56:14.436Z,99.96
2019-02-03T09:57:14.421Z,99.99
2019-02-03T09:58:14.511Z,99.86
2019-02-03T09:59:14.385Z,99.99
2019-02-03T10:00:14.681Z,99.67
2019-02-03T10:01:14.365Z,99.86
2019-02-03T10:02:14.342Z,99.99
2019-02-03T10:03:14.332Z,99.99
2019-02-03T10:04:14.314Z,99.99
2019-02-03T10:05:14.299Z,99.86
2019-02-03T10:06:14.296Z,99.77
2019-02-03T10:07:14.268Z,99.77
2019-02-03T10:08:15.977Z,99.77
2019-02-03T10:09:14.238Z,99.67
2019-02-03T10:10:14.227Z,99.39
2019-02-03T10:11:14.882Z,99.86
2019-02-03T10:12:14.191Z,99.86
2019-02-03T10:13:14.331Z,99.96
2019-02-03T10:14:14.168Z,99.48
2019-02-03T10:15:14.152Z,99.48
2019-02-03T10:16:14.460Z,99.77
2019-02-03T10:17:14.120Z,99.67
2019-02-03T10:18:14.113Z,99.48
2019-02-03T10:19:14.094Z,99.67
2019-02-03T10:20:14.074Z,99.67
2019-02-03T10:21:14.054Z,99.39
2019-02-03T10:22:14.049Z,99.48
2019-02-03T10:23:14.027Z,99.29
2019-02-03T10:24:14.230Z,99.86
2019-02-03T10:25:14.001Z,99.86
2019-02-03T10:26:13.985Z,99.48
2019-02-03T10:27:13.970Z,99.39
2019-02-03T10:28:13.950Z,98.91
2019-02-03T10:29:13.938Z,99.1
2019-02-03T10:30:13.923Z,98.72
2019-02-03T10:31:13.903Z,98.91
2019-02-03T10:32:13.990Z,99.1
2019-02-03T10:33:13.878Z,99.2
2019-02-03T10:34:13.869Z,98.72
2019-02-03T10:35:25.451Z,99.2
2019-02-03T10:36:13.949Z,99.1
2019-02-03T10:37:13.817Z,99.29
2019-02-03T10:38:13.934Z,98.72
2019-02-03T10:39:13.790Z,98.44
2019-02-03T10:40:14.043Z,98.63
2019-02-03T10:41:26.074Z,99.29
2019-02-03T10:42:13.745Z,99.29
2019-02-03T10:43:13.732Z,99.58
2019-02-03T10:44:13.714Z,99.2
2019-02-03T10:45:13.696Z,98.72
2019-02-03T10:46:13.682Z,98.82
2019-02-03T10:47:13.666Z,98.91
2019-02-03T10:48:13.957Z,99.29
2019-02-03T10:49:13.634Z,99.48
2019-02-03T10:50:13.621Z,99.48
2019-02-03T10:51:13.619Z,98.82
2019-02-03T10:52:13.590Z,98.91
2019-02-03T10:53:13.579Z,99.15
2019-02-03T10:54:13.558Z,99.34
2019-02-03T10:55:13.675Z,99.34
2019-02-03T10:56:13.539Z,99.72
2019-02-03T10:57:13.524Z,99.53
2019-02-03T10:58:13.515Z,99.72
2019-02-03T10:59:13.494Z,99.82
2019-02-03T11:00:20.436Z,99.72
2019-02-03T11:01:13.467Z,99.82
2019-02-03T11:02:13.449Z,99.63
2019-02-03T11:03:13.741Z,99.82
2019-02-03T11:04:13.428Z,99.72
2019-02-03T11:05:13.417Z,99.82
2019-02-03T11:06:13.391Z,99.63
2019-02-03T11:07:13.380Z,99.63
2019-02-03T11:08:13.363Z,99.53
2019-02-03T11:09:13.349Z,99.53
2019-02-03T11:10:13.335Z,99.44
2019-02-03T11:11:13.624Z,99.91
2019-02-03T11:12:13.301Z,99.72
2019-02-03T11:13:13.298Z,99.82
2019-02-03T11:14:13.291Z,99.91
2019-02-03T11:15:13.261Z,99.72
2019-02-03T11:16:13.264Z,99.25
2019-02-03T11:17:13.247Z,99.82
2019-02-03T11:18:13.221Z,99.99
2019-02-03T11:19:13.225Z,99.82
2019-02-03T11:20:13.189Z,99.91
2019-02-03T11:21:13.179Z,99.99
2019-02-03T11:22:13.173Z,99.82
2019-02-03T11:23:13.154Z,99.91
2019-02-03T11:24:13.164Z,99.99
2019-02-03T11:25:13.114Z,99.91
2019-02-03T11:26:13.394Z,99.96
2019-02-03T11:27:13.083Z,99.99
2019-02-03T11:28:13.090Z,99.99
2019-02-03T11:29:13.070Z,99.99
2019-02-03T11:30:13.039Z,99.99
2019-02-03T11:31:13.030Z,99.99
2019-02-03T11:32:13.016Z,99.99
2019-02-03T11:33:12.999Z,99.99
2019-02-03T11:34:12.991Z,99.99
2019-02-03T11:35:12.987Z,99.86
2019-02-03T11:36:12.966Z,99.99
2019-02-03T11:37:12.934Z,99.99
2019-02-03T11:38:12.921Z,99.77
2019-02-03T11:39:12.906Z,99.99
2019-02-03T11:40:12.886Z,99.99
2019-02-03T11:41:13.182Z,99.86
2019-02-03T11:42:12.862Z,99.77
2019-02-03T11:43:12.842Z,99.99
2019-02-03T11:44:12.834Z,99.99
2019-02-03T11:45:12.819Z,99.99
2019-02-03T11:46:12.803Z,99.99
2019-02-03T11:47:12.787Z,99.99
2019-02-03T11:48:12.784Z,99.99
2019-02-03T11:49:13.074Z,99.99
2019-02-03T11:50:12.748Z,99.99
2019-02-03T11:51:12.736Z,99.99
2019-02-03T11:52:12.715Z,99.99
2019-02-03T11:53:12.697Z,99.99
2019-02-03T11:54:12.673Z,99.77
2019-02-03T11:55:12.659Z,99.86
2019-02-03T11:56:12.657Z,99.86
2019-02-03T11:57:12.933Z,99.99
2019-02-03T11:58:12.623Z,99.67
2019-02-03T11:59:12.598Z,99.99
2019-02-03T12:00:12.591Z,99.67
2019-02-03T12:01:12.566Z,99.99
2019-02-03T12:02:12.555Z,99.82
2019-02-03T12:03:12.544Z,99.99
2019-02-03T12:04:12.528Z,99.99
2019-02-03T12:05:12.848Z,99.34
2019-02-03T12:06:12.495Z,99.99
2019-02-03T12:07:12.480Z,99.91
2019-02-03T12:08:12.462Z,99.99
2019-02-03T12:09:12.458Z,99.99
2019-02-03T12:10:12.432Z,99.99
2019-02-03T12:11:12.545Z,99.99
2019-02-03T12:12:12.404Z,99.99
2019-02-03T12:13:12.388Z,99.99
2019-02-03T12:14:12.381Z,99.99
2019-02-03T12:15:12.368Z,99.99
2019-02-03T12:16:12.341Z,99.99
2019-02-03T12:17:12.329Z,99.99
2019-02-03T12:18:12.319Z,99.99
2019-02-03T12:19:12.300Z,99.99
2019-02-03T12:20:12.300Z,99.99
2019-02-03T12:21:12.268Z,99.99
2019-02-03T12:22:12.458Z,99.99
2019-02-03T12:23:12.237Z,99.99
2019-02-03T12:24:12.242Z,99.99
2019-02-03T12:25:12.211Z,99.99
2019-02-03T12:26:12.198Z,99.99
2019-02-03T12:27:12.181Z,99.99
2019-02-03T12:28:12.178Z,99.99
2019-02-03T12:29:12.156Z,99.99
2019-02-03T12:30:12.392Z,99.99
2019-02-03T12:31:12.122Z,99.99
2019-02-03T12:32:12.112Z,99.99
2019-02-03T12:33:12.091Z,99.99
2019-02-03T12:34:12.075Z,99.99
2019-02-03T12:35:12.062Z,99.99
2019-02-03T12:36:12.048Z,99.99
2019-02-03T12:37:12.037Z,99.99
2019-02-03T12:38:12.324Z,99.99
2019-02-03T12:39:12.002Z,99.99
2019-02-03T12:40:11.991Z,99.99
2019-02-03T12:41:11.973Z,99.99
2019-02-03T12:42:15.908Z,99.99
2019-02-03T12:43:11.940Z,99.99
2019-02-03T12:44:11.927Z,99.99
2019-02-03T12:45:11.911Z,99.99
2019-02-03T12:46:12.094Z,99.99
2019-02-03T12:47:11.888Z,99.99
2019-02-03T12:48:11.634Z,99.99
2019-02-03T12:49:11.853Z,99.99
2019-02-03T12:50:11.838Z,99.99
2019-02-03T12:51:11.829Z,99.99
2019-02-03T12:52:11.809Z,99.99
2019-02-03T12:53:11.812Z,99.99